Mystic, Missouri
Current Conditions -  °F | °C
As of 6:55 PM on Sunday 21 Dec 2014 (Local Time) from KIRK Reporting Station
Light Rain Light Rain  
Wind Chill: 34°   Ceiling: 1400
Heat Index: 41°   Visibility: 5mi
Dew Point: 40°   Wind: 13mph
Humidity: 96%   Direction: 150°SSE
Pressure: 29.89"   Gusts: NA
Location:  40.2455°N, 92.9523°W
Report Text: KIRK 220055Z AUTO 15011KT 5SM -RA BR OVC014 05/04 A2989 RMK AO2 RAB46 SLP130 P0000 T00500044
Loading
Personal Weather Stations






























Interactive Weather Map New forecast layout! Learn more

10-Day Weather Forecast

Advertisements
Track Severe Weather on mobile